Time;durP1;ratioP1;P1;durP2;ratioP2;P2;SDS_P1;SDS_P2;PMS_P1;PMS_P2;Temp;Humidity;BMP_temperature;BMP_pressure;BME280_temperature;BME280_humidity;BME280_pressure;Samples;Min_cycle;Max_cycle;Signal;HPM_P1;HPM_P2
2022/09/25 00:01:01;;;;;;;8.80;6.27;;;;;;;9.58;65.69;97432.22;5089136;28;20189;-78
2022/09/25 00:03:29;;;;;;;7.63;6.37;;;;;;;9.63;65.44;97440.66;5094180;27;20199;-77
2022/09/25 00:06:02;;;;;;;8.70;6.37;;;;;;;9.66;65.49;97428.47;5062816;28;20569;-78
2022/09/25 00:08:29;;;;;;;8.57;6.07;;;;;;;9.84;64.72;97435.56;5100563;28;20185;-77
2022/09/25 00:10:56;;;;;;;8.67;6.57;;;;;;;9.88;64.60;97440.59;5089114;28;20187;-76
2022/09/25 00:13:24;;;;;;;8.27;6.33;;;;;;;9.93;65.10;97436.13;5105108;28;20643;-76
2022/09/25 00:15:54;;;;;;;9.77;6.20;;;;;;;9.81;64.77;97422.72;5095976;28;20204;-76
2022/09/25 00:21:11;;;;;;;10.93;6.73;;;;;;;9.83;64.87;97418.34;5089149;28;20212;-76
2022/09/25 00:23:40;;;;;;;6.80;6.10;;;;;;;9.95;64.88;97421.38;5087691;28;20692;-78
2022/09/25 00:26:08;;;;;;;8.03;5.77;;;;;;;9.97;65.13;97414.41;5089936;28;20855;-77
2022/09/25 00:28:36;;;;;;;7.87;6.50;;;;;;;9.92;64.25;97411.13;5108526;28;20192;-80
2022/09/25 00:31:04;;;;;;;8.97;6.17;;;;;;;9.73;65.30;97413.56;5108825;28;20284;-78
2022/09/25 00:33:32;;;;;;;9.47;6.20;;;;;;;9.63;65.81;97404.44;5109320;28;20293;-78
2022/09/25 00:36:07;;;;;;;6.03;5.27;;;;;;;9.57;65.81;97404.66;5107990;28;20188;-77
2022/09/25 00:38:35;;;;;;;8.07;6.70;;;;;;;9.70;65.45;97414.53;5109106;28;20222;-79
2022/09/25 00:41:05;;;;;;;7.47;6.77;;;;;;;9.69;65.23;97411.97;5107675;28;20196;-79
2022/09/25 00:43:43;;;;;;;7.20;6.47;;;;;;;9.60;65.37;97414.91;5108837;28;20216;-78
2022/09/25 00:46:13;;;;;;;6.73;5.50;;;;;;;9.53;65.80;97409.13;5108583;28;20194;-80
2022/09/25 00:48:54;;;;;;;8.10;6.07;;;;;;;9.74;64.52;97405.75;5108157;28;20648;-79
2022/09/25 00:51:27;;;;;;;7.77;5.43;;;;;;;9.94;64.30;97388.63;5109052;28;20195;-76
2022/09/25 00:54:00;;;;;;;7.00;5.33;;;;;;;9.94;63.35;97402.41;5088920;28;20294;-76
2022/09/25 00:56:30;;;;;;;8.43;5.90;;;;;;;9.91;63.85;97393.94;5108775;28;20258;-77
2022/09/25 00:58:57;;;;;;;8.33;5.53;;;;;;;9.93;63.75;97397.31;5107806;28;20674;-79
2022/09/25 01:01:24;;;;;;;7.80;5.87;;;;;;;10.01;63.83;97392.69;5108674;28;20192;-79
2022/09/25 01:03:54;;;;;;;8.20;6.10;;;;;;;10.13;63.75;97385.34;5075450;28;20263;-77
2022/09/25 01:06:25;;;;;;;6.87;5.77;;;;;;;10.09;63.02;97388.91;5107718;28;20215;-77
2022/09/25 01:08:52;;;;;;;7.67;5.40;;;;;;;10.19;63.52;97389.44;5108648;28;20266;-78
2022/09/25 01:11:19;;;;;;;7.80;5.80;;;;;;;10.28;63.40;97376.97;5107282;28;20219;-79
2022/09/25 01:13:46;;;;;;;10.27;6.10;;;;;;;10.40;63.03;97384.28;5108782;28;20196;-78
2022/09/25 01:16:40;;;;;;;8.27;5.47;;;;;;;10.43;62.75;97391.06;5104912;28;20196;-77
2022/09/25 01:19:18;;;;;;;8.53;5.67;;;;;;;10.11;62.62;97386.28;5097226;28;20675;-79
2022/09/25 01:22:20;;;;;;;7.77;5.47;;;;;;;9.74;63.25;97381.63;5108474;28;20286;-77
2022/09/25 01:24:50;;;;;;;6.93;5.20;;;;;;;9.66;64.45;97384.50;5097861;28;20235;-76
2022/09/25 01:27:26;;;;;;;7.90;6.00;;;;;;;9.76;64.30;97387.59;5106179;27;20672;-81
2022/09/25 01:30:04;;;;;;;7.73;5.60;;;;;;;9.79;63.99;97374.53;5107029;28;20227;-79
2022/09/25 01:32:41;;;;;;;7.57;5.50;;;;;;;9.88;63.52;97375.94;5095757;28;20275;-79
2022/09/25 01:35:24;;;;;;;7.63;5.33;;;;;;;9.74;64.14;97385.06;5106462;28;20192;-78
2022/09/25 01:38:16;;;;;;;6.33;5.53;;;;;;;9.78;64.19;97389.22;5092068;28;20690;-80
2022/09/25 01:40:57;;;;;;;6.60;5.73;;;;;;;9.87;64.35;97384.59;5101694;28;20196;-77
2022/09/25 01:43:35;;;;;;;7.53;5.27;;;;;;;9.89;63.98;97375.03;5099148;28;20220;-77
2022/09/25 01:46:18;;;;;;;7.23;5.27;;;;;;;9.95;63.23;97386.00;5088510;28;20192;-76
2022/09/25 01:48:53;;;;;;;6.83;5.33;;;;;;;9.99;63.43;97392.75;5076068;28;20200;-77
2022/09/25 01:51:31;;;;;;;6.90;5.30;;;;;;;10.01;63.03;97390.09;5094782;28;20253;-79
2022/09/25 01:54:06;;;;;;;7.00;5.50;;;;;;;10.00;62.96;97391.00;5103040;28;20577;-77
2022/09/25 01:56:38;;;;;;;6.30;5.20;;;;;;;9.98;64.19;97396.22;5076147;28;20748;-77
2022/09/25 01:59:12;;;;;;;7.83;6.17;;;;;;;9.95;63.65;97392.94;5093563;28;21036;-77
2022/09/25 02:01:41;;;;;;;5.93;5.00;;;;;;;10.02;63.00;97389.19;5098835;28;20198;-77
2022/09/25 02:04:22;;;;;;;8.20;5.83;;;;;;;9.83;62.59;97369.19;5078605;28;20693;-77
2022/09/25 02:06:50;;;;;;;10.30;5.37;;;;;;;10.07;62.69;97395.03;5096832;28;20194;-77
2022/09/25 02:09:31;;;;;;;6.33;5.70;;;;;;;10.10;63.39;97389.78;5106933;28;20280;-77
2022/09/25 02:12:05;;;;;;;7.93;7.13;;;;;;;9.88;62.86;97388.88;5094602;28;20684;-76
2022/09/25 02:14:38;;;;;;;8.87;6.60;;;;;;;9.76;63.40;97393.63;5094782;28;20674;-78
2022/09/25 02:17:11;;;;;;;8.77;6.47;;;;;;;9.58;63.65;97383.91;5086567;28;20543;-77
2022/09/25 02:22:33;;;;;;;8.10;6.33;;;;;;;9.45;64.36;97389.59;5093274;28;20672;-78
2022/09/25 02:25:10;;;;;;;7.83;6.27;;;;;;;9.32;64.95;97372.81;5099064;28;20249;-78
2022/09/25 02:27:37;;;;;;;7.13;5.23;;;;;;;9.24;65.41;97383.44;5104683;28;20625;-78
2022/09/25 02:30:04;;;;;;;7.27;5.20;;;;;;;9.26;65.28;97376.47;5089498;28;20197;-77
2022/09/25 02:32:31;;;;;;;9.97;5.00;;;;;;;9.31;65.42;97382.34;5091466;28;20189;-77
2022/09/25 02:34:59;;;;;;;7.83;6.27;;;;;;;9.45;65.09;97385.28;5087685;28;20790;-80
2022/09/25 02:37:28;;;;;;;6.43;5.83;;;;;;;9.25;64.84;97382.56;5085858;28;20270;-79
2022/09/25 02:39:59;;;;;;;8.13;5.67;;;;;;;9.32;65.28;97376.25;5099781;28;20959;-79
2022/09/25 02:42:41;;;;;;;8.77;5.93;;;;;;;9.39;64.88;97395.84;5094468;27;20251;-80
2022/09/25 02:45:18;;;;;;;9.93;7.53;;;;;;;9.47;64.67;97399.00;5087718;28;20201;-77
2022/09/25 02:48:01;;;;;;;9.70;7.87;;;;;;;9.53;64.43;97398.78;5103847;28;20219;-79
2022/09/25 02:50:37;;;;;;;10.87;8.13;;;;;;;9.29;65.51;97394.47;5090277;28;20204;-78
2022/09/25 02:53:23;;;;;;;11.70;8.07;;;;;;;8.86;66.15;97399.41;5083430;28;20587;-77
2022/09/25 02:56:19;;;;;;;10.43;7.23;;;;;;;8.59;67.87;97408.91;5095802;28;20206;-78
2022/09/25 02:58:55;;;;;;;9.63;7.23;;;;;;;8.22;68.07;97377.38;5104799;28;20762;-77
2022/09/25 03:01:25;;;;;;;11.03;7.80;;;;;;;8.14;69.50;97413.72;5104626;28;20195;-78
2022/09/25 03:03:56;;;;;;;9.57;7.23;;;;;;;8.31;68.75;97392.59;5097910;28;20199;-79
2022/09/25 03:06:24;;;;;;;9.77;6.93;;;;;;;8.30;68.96;97393.50;5098794;27;20189;-79
2022/09/25 03:08:55;;;;;;;9.80;7.87;;;;;;;8.40;69.38;97399.22;5105046;27;20266;-78
2022/09/25 03:11:25;;;;;;;11.33;6.87;;;;;;;8.28;69.16;97397.88;5105913;28;20207;-78
2022/09/25 03:13:57;;;;;;;9.97;8.03;;;;;;;8.34;69.13;97397.66;5109117;28;20191;-78
2022/09/25 03:16:33;;;;;;;10.33;8.77;;;;;;;8.11;69.25;97393.19;5098249;28;20826;-78
2022/09/25 03:19:01;;;;;;;11.17;8.30;;;;;;;8.09;70.32;97394.97;5097131;28;20203;-78
2022/09/25 03:21:28;;;;;;;14.43;9.53;;;;;;;8.16;70.19;97401.63;5109118;28;20241;-77
2022/09/25 03:23:55;;;;;;;12.83;9.47;;;;;;;8.12;70.19;97396.59;5104820;28;20219;-78
2022/09/25 03:26:24;;;;;;;11.90;9.63;;;;;;;8.11;70.13;97398.34;5102078;28;20257;-78
2022/09/25 03:28:52;;;;;;;10.50;9.10;;;;;;;8.18;69.09;97393.84;5098863;28;20208;-77
2022/09/25 03:31:19;;;;;;;13.57;9.97;;;;;;;8.14;69.18;97402.53;5106658;28;20253;-77
2022/09/25 03:33:47;;;;;;;12.43;9.80;;;;;;;8.12;70.38;97404.31;5103682;28;20701;-76
2022/09/25 03:36:17;;;;;;;11.40;8.90;;;;;;;8.16;70.00;97411.94;5101079;28;20701;-77
2022/09/25 03:38:47;;;;;;;11.43;9.27;;;;;;;8.22;69.63;97409.16;5098383;28;20239;-78
2022/09/25 03:41:18;;;;;;;12.53;9.57;;;;;;;8.29;69.12;97406.41;5100167;28;20190;-77
2022/09/25 03:43:50;;;;;;;13.97;10.40;;;;;;;8.17;69.27;97385.25;5072209;28;20225;-76
2022/09/25 03:46:20;;;;;;;12.93;9.10;;;;;;;8.22;69.79;97391.09;5079809;28;20263;-78
2022/09/25 03:48:48;;;;;;;10.40;8.77;;;;;;;8.19;70.55;97386.06;5077603;28;20691;-77
2022/09/25 03:51:18;;;;;;;11.33;8.33;;;;;;;8.33;69.92;97392.53;5082923;28;20279;-78
2022/09/25 03:53:47;;;;;;;14.63;8.47;;;;;;;8.59;68.80;97395.16;5081661;28;20199;-76
2022/09/25 03:56:19;;;;;;;9.87;7.87;;;;;;;8.76;67.67;97398.88;5086077;28;20197;-78
2022/09/25 03:58:47;;;;;;;10.23;8.97;;;;;;;8.96;67.44;97390.47;5081532;28;20593;-79
2022/09/25 04:01:15;;;;;;;11.73;9.03;;;;;;;9.11;67.51;97383.94;5086219;28;20193;-77
2022/09/25 04:03:46;;;;;;;14.33;9.10;;;;;;;9.26;66.78;97385.97;5068467;28;20188;-78
2022/09/25 04:06:17;;;;;;;12.00;8.87;;;;;;;9.37;65.67;97381.28;5074598;28;20228;-80
2022/09/25 04:08:45;;;;;;;10.77;7.80;;;;;;;9.44;65.42;97387.91;5087890;28;20219;-78
2022/09/25 04:11:14;;;;;;;10.77;8.00;;;;;;;9.41;65.35;97388.88;5089195;28;20184;-76
2022/09/25 04:13:43;;;;;;;11.93;7.87;;;;;;;9.43;65.53;97391.41;5085568;28;20768;-78
2022/09/25 04:16:11;;;;;;;10.27;8.43;;;;;;;9.17;65.72;97374.22;5068902;28;20576;-77
2022/09/25 04:18:41;;;;;;;9.87;8.43;;;;;;;9.27;65.19;97380.78;5068316;28;20232;-78
2022/09/25 04:21:10;;;;;;;12.27;10.37;;;;;;;9.02;65.54;97385.94;5067802;28;20188;-78
2022/09/25 04:23:37;;;;;;;11.57;9.57;;;;;;;8.68;67.23;97389.69;5079614;28;20193;-76
2022/09/25 04:26:06;;;;;;;13.03;10.30;;;;;;;8.25;67.92;97382.47;5087171;28;20227;-77
2022/09/25 04:28:36;;;;;;;16.07;11.27;;;;;;;8.23;68.94;97392.81;5088641;28;20283;-75
2022/09/25 04:31:04;;;;;;;13.57;10.13;;;;;;;8.50;69.12;97405.75;5069426;28;20211;-76
2022/09/25 04:33:46;;;;;;;12.77;9.13;;;;;;;8.81;68.59;97401.28;5088788;28;20789;-78
2022/09/25 04:36:16;;;;;;;9.90;8.87;;;;;;;9.14;66.30;97395.00;5088407;28;20192;-76
2022/09/25 04:38:46;;;;;;;11.10;9.03;;;;;;;9.42;66.34;97400.03;5087414;28;20696;-77
2022/09/25 04:41:15;;;;;;;10.03;7.67;;;;;;;9.63;64.70;97400.13;5088631;28;20563;-77
2022/09/25 04:43:42;;;;;;;8.83;7.20;;;;;;;9.76;64.20;97401.38;5068437;28;20632;-75
2022/09/25 04:46:11;;;;;;;10.77;7.20;;;;;;;9.79;63.11;97400.38;5068110;28;20209;-79
2022/09/25 04:48:49;;;;;;;8.70;6.77;;;;;;;9.66;63.99;97409.53;5073458;28;20200;-75
2022/09/25 04:51:20;;;;;;;7.43;5.93;;;;;;;9.81;63.60;97399.44;5050396;28;20222;-77
2022/09/25 04:53:48;;;;;;;7.93;6.57;;;;;;;9.94;62.83;97405.00;5067040;28;20192;-78
2022/09/25 04:56:15;;;;;;;14.17;9.07;;;;;;;9.96;63.42;97404.94;5068181;28;20288;-76
2022/09/25 04:58:45;;;;;;;11.57;7.23;;;;;;;10.15;62.59;97405.97;5067828;28;20228;-77
2022/09/25 05:01:14;;;;;;;8.67;7.03;;;;;;;10.07;62.20;97411.41;5064971;28;20201;-76
2022/09/25 05:03:41;;;;;;;11.57;7.40;;;;;;;9.63;62.82;97384.59;5067377;28;20186;-78
2022/09/25 05:06:08;;;;;;;9.57;7.20;;;;;;;9.88;62.88;97410.41;5065591;28;21350;-78
2022/09/25 05:08:35;;;;;;;9.80;7.20;;;;;;;9.80;63.27;97408.13;5067444;28;20181;-77
2022/09/25 05:11:02;;;;;;;11.20;6.60;;;;;;;9.07;64.33;97315.19;5066787;28;20205;-77
2022/09/25 05:13:30;;;;;;;9.63;6.90;;;;;;;9.91;63.59;97405.13;5056612;28;20708;-76
2022/09/25 05:15:57;;;;;;;10.70;7.87;;;;;;;9.82;63.28;97406.31;5052545;28;20639;-78
2022/09/25 05:18:24;;;;;;;10.13;7.37;;;;;;;10.08;63.33;97410.50;5049797;28;20218;-76
2022/09/25 05:20:53;;;;;;;10.40;6.90;;;;;;;10.25;62.52;97418.50;5046409;28;20747;-77
2022/09/25 05:23:20;;;;;;;17.60;10.33;;;;;;;10.01;63.65;97423.75;5046461;28;20189;-76
2022/09/25 05:25:56;;;;;;;8.57;6.40;;;;;;;9.89;64.21;97417.28;5047483;28;20201;-75
2022/09/25 05:28:23;;;;;;;8.77;6.40;;;;;;;9.99;63.54;97420.38;5058565;28;20200;-77
2022/09/25 05:30:52;;;;;;;7.83;5.87;;;;;;;10.03;63.83;97427.09;5046373;28;20230;-76
2022/09/25 05:33:19;;;;;;;8.53;5.90;;;;;;;10.02;64.14;97428.00;5046697;28;20233;-77
2022/09/25 05:35:47;;;;;;;7.77;6.07;;;;;;;10.15;64.14;97437.03;5045850;28;20221;-76
2022/09/25 05:38:16;;;;;;;9.83;6.47;;;;;;;10.17;63.95;97411.94;5071597;28;20226;-75
2022/09/25 05:40:45;;;;;;;9.90;6.60;;;;;;;10.46;63.25;97435.81;5085550;28;20276;-77
2022/09/25 05:43:12;;;;;;;10.57;6.90;;;;;;;10.74;63.40;97445.91;5104168;28;20212;-74
2022/09/25 05:45:41;;;;;;;8.43;6.03;;;;;;;10.93;62.93;97431.31;5107263;28;20279;-77
2022/09/25 05:48:10;;;;;;;8.77;5.77;;;;;;;10.81;63.33;97431.81;5106590;28;20190;-77
2022/09/25 05:50:37;;;;;;;10.10;6.50;;;;;;;10.97;63.11;97422.50;5109145;28;20204;-80
2022/09/25 05:53:05;;;;;;;8.13;5.50;;;;;;;10.86;63.58;97423.88;5106916;28;20932;-80
2022/09/25 05:55:32;;;;;;;9.13;5.77;;;;;;;10.90;63.65;97434.00;5108781;28;20187;-78
2022/09/25 05:58:03;;;;;;;20.17;11.83;;;;;;;10.95;64.60;97424.31;5107164;28;20215;-77
2022/09/25 06:00:31;;;;;;;9.53;6.30;;;;;;;11.16;62.89;97423.44;5090399;28;20182;-77
2022/09/25 06:03:00;;;;;;;8.80;6.33;;;;;;;11.31;62.52;97407.22;5090183;28;20260;-78
2022/09/25 06:05:27;;;;;;;8.87;6.20;;;;;;;11.60;61.83;97415.50;5106720;28;20275;-78
2022/09/25 06:07:55;;;;;;;8.90;6.50;;;;;;;11.61;61.87;97418.03;5109054;28;20180;-76
2022/09/25 06:10:24;;;;;;;8.87;6.00;;;;;;;11.70;61.51;97420.25;5106169;28;20194;-78
2022/09/25 06:12:59;;;;;;;7.37;5.43;;;;;;;11.97;60.09;97418.19;5089809;28;20645;-77
2022/09/25 06:15:28;;;;;;;8.33;5.20;;;;;;;12.34;58.82;97422.53;5105966;28;20580;-79
2022/09/25 06:17:55;;;;;;;6.80;5.57;;;;;;;12.58;58.84;97424.81;5100516;28;20224;-78
2022/09/25 06:20:23;;;;;;;20.20;8.27;;;;;;;12.84;58.18;97427.00;5090843;28;20188;-78
2022/09/25 06:22:55;;;;;;;8.03;5.50;;;;;;;13.05;58.09;97428.59;5090298;28;20190;-77
2022/09/25 06:25:25;;;;;;;8.37;5.37;;;;;;;13.45;56.61;97426.59;5072782;28;20257;-77
2022/09/25 06:27:55;;;;;;;6.73;4.50;;;;;;;13.44;55.95;97419.69;5089625;28;20242;-78
2022/09/25 06:30:26;;;;;;;7.33;4.83;;;;;;;13.37;55.92;97429.59;5073170;28;20573;-76
2022/09/25 06:32:56;;;;;;;5.90;4.97;;;;;;;13.51;55.29;97416.72;5090301;28;20276;-77
2022/09/25 06:35:23;;;;;;;5.97;4.30;;;;;;;13.67;54.71;97420.22;5072360;28;20191;-76
2022/09/25 06:37:51;;;;;;;6.83;5.23;;;;;;;13.59;54.83;97387.69;5090948;28;20620;-78
2022/09/25 06:40:18;;;;;;;8.07;5.43;;;;;;;14.08;55.27;97418.00;5089659;28;20620;-79
2022/09/25 06:42:46;;;;;;;15.77;9.80;;;;;;;14.38;55.56;97424.22;5091194;28;20259;-79
2022/09/25 06:45:14;;;;;;;4.97;4.27;;;;;;;14.72;53.20;97424.94;5090021;28;20199;-77
2022/09/25 06:47:41;;;;;;;4.77;4.00;;;;;;;14.97;51.51;97423.47;5091373;28;20256;-76
2022/09/25 06:50:08;;;;;;;5.87;4.10;;;;;;;14.88;52.01;97431.00;5089437;28;20216;-76
2022/09/25 06:52:55;;;;;;;6.30;3.67;;;;;;;15.15;50.83;97435.47;5072545;28;20279;-76
2022/09/25 06:55:21;;;;;;;5.20;4.20;;;;;;;15.05;50.62;97403.00;5090840;27;20193;-78
2022/09/25 06:57:50;;;;;;;7.20;3.70;;;;;;;15.20;50.04;97428.22;5098358;28;20200;-77
2022/09/25 07:00:33;;;;;;;4.17;3.30;;;;;;;15.18;49.65;97429.25;5109648;28;20235;-76
2022/09/25 07:05:48;;;;;;;3.20;2.90;;;;;;;15.18;49.59;97424.03;5091593;28;20203;-76
2022/09/25 07:08:18;;;;;;;5.53;3.13;;;;;;;15.24;50.09;97429.72;5110578;28;20188;-75
2022/09/25 07:11:26;;;;;;;4.77;3.27;;;;;;;15.29;49.79;97434.69;5108913;28;20679;-76
2022/09/25 07:14:10;;;;;;;5.60;2.80;;;;;;;15.53;48.98;97429.81;5089879;28;20224;-78
2022/09/25 07:16:37;;;;;;;3.93;3.30;;;;;;;15.65;48.26;97435.16;5071706;28;20198;-78
2022/09/25 07:19:06;;;;;;;3.97;3.43;;;;;;;15.79;47.56;97429.94;5089269;28;20212;-77
2022/09/25 07:21:33;;;;;;;5.40;4.00;;;;;;;16.00;47.73;97430.41;5072723;28;20220;-78
2022/09/25 07:24:20;;;;;;;6.43;4.00;;;;;;;16.21;48.15;97414.28;5071932;28;20265;-78
2022/09/25 07:27:58;;;;;;;5.30;3.17;;;;;;;16.37;47.38;97413.28;5089781;28;20202;-77
2022/09/25 07:30:30;;;;;;;6.77;4.47;;;;;;;16.51;47.15;97423.75;5090461;28;20257;-78
2022/09/25 07:33:03;;;;;;;7.63;4.10;;;;;;;16.69;45.74;97420.81;5095398;28;20188;-77
2022/09/25 07:35:38;;;;;;;4.07;3.67;;;;;;;16.61;45.56;97419.63;5110812;28;20235;-76
2022/09/25 07:38:20;;;;;;;11.53;7.83;;;;;;;16.53;45.64;97414.88;5110253;28;20252;-79
2022/09/25 07:41:30;;;;;;;10.70;6.53;;;;;;;16.75;47.41;97423.06;5085317;28;20203;-76
2022/09/25 07:44:11;;;;;;;13.53;7.43;;;;;;;16.66;46.55;97391.41;5105523;28;20192;-76
2022/09/25 07:46:54;;;;;;;8.60;4.90;;;;;;;16.82;45.63;97408.63;5099046;28;20199;-76
2022/09/25 07:49:21;;;;;;;10.20;5.03;;;;;;;16.67;45.77;97385.25;5088565;28;20215;-77
2022/09/25 07:51:48;;;;;;;6.77;4.50;;;;;;;16.90;46.16;97403.72;5089691;28;20725;-75
2022/09/25 07:54:15;;;;;;;3.60;2.97;;;;;;;16.51;48.11;97403.66;5087795;28;20627;-77
2022/09/25 07:56:42;;;;;;;4.60;3.57;;;;;;;16.59;49.15;97413.66;5088942;28;20573;-77
2022/09/25 07:59:11;;;;;;;8.23;5.07;;;;;;;16.93;49.03;97408.78;5069435;28;20692;-75
2022/09/25 08:01:38;;;;;;;6.37;4.00;;;;;;;16.90;49.18;97410.72;5089135;28;20240;-77
2022/09/25 08:04:11;;;;;;;5.30;4.30;;;;;;;16.95;49.45;97393.81;5088338;28;20205;-77
2022/09/25 08:06:38;;;;;;;4.63;3.60;;;;;;;16.33;50.98;97403.97;5088225;28;20557;-77
2022/09/25 08:09:05;;;;;;;6.07;4.47;;;;;;;16.67;50.20;97396.53;5088985;28;20284;-75
2022/09/25 08:11:37;;;;;;;4.10;3.70;;;;;;;16.79;50.24;97395.75;5087328;28;20192;-76
2022/09/25 08:14:04;;;;;;;6.70;3.60;;;;;;;16.83;51.02;97399.84;5090126;28;20292;-75
2022/09/25 08:16:31;;;;;;;8.30;4.40;;;;;;;17.17;50.57;97387.16;5089250;28;20193;-75
2022/09/25 08:18:58;;;;;;;4.17;3.77;;;;;;;17.36;49.67;97403.31;5073596;28;20722;-75
2022/09/25 08:21:25;;;;;;;4.90;3.90;;;;;;;17.49;50.37;97397.19;5088825;28;20194;-75
2022/09/25 08:23:53;;;;;;;4.90;4.00;;;;;;;17.46;49.72;97396.50;5088966;28;20232;-76
2022/09/25 08:26:22;;;;;;;5.27;4.17;;;;;;;17.64;49.57;97396.13;5088839;28;20197;-74
2022/09/25 08:28:49;;;;;;;8.33;4.63;;;;;;;17.72;49.52;97393.00;5087269;28;20272;-78
2022/09/25 08:31:17;;;;;;;6.43;3.93;;;;;;;17.16;50.38;97382.88;5088556;28;20191;-74
2022/09/25 08:33:48;;;;;;;5.90;4.43;;;;;;;17.43;50.42;97399.34;5086851;28;20201;-73
2022/09/25 08:36:16;;;;;;;5.93;4.37;;;;;;;17.32;51.62;97386.97;5088164;28;20220;-74
2022/09/25 08:38:44;;;;;;;8.73;4.10;;;;;;;17.45;51.41;97385.22;5067710;28;20226;-75
2022/09/25 08:41:17;;;;;;;5.23;4.67;;;;;;;17.57;50.93;97384.41;5087485;28;20565;-77
2022/09/25 08:44:08;;;;;;;6.47;4.47;;;;;;;17.94;50.32;97376.63;5088082;28;20349;-77
2022/09/25 08:49:44;;;;;;;6.00;3.97;;;;;;;18.09;48.54;97380.81;5088378;28;20650;-75
2022/09/25 08:52:15;;;;;;;6.23;4.17;;;;;;;18.30;48.96;97374.88;5087699;28;20277;-76
2022/09/25 08:54:43;;;;;;;5.70;4.70;;;;;;;18.25;50.14;97355.19;5086941;28;20286;-76
2022/09/25 08:57:54;;;;;;;5.03;3.90;;;;;;;18.41;49.14;97350.50;5087828;28;20186;-77
2022/09/25 09:00:23;;;;;;;5.27;4.60;;;;;;;18.49;49.03;97350.81;5004014;28;20373;-76
2022/09/25 09:02:54;;;;;;;7.93;4.17;;;;;;;18.33;50.05;97358.09;5076215;28;20255;-75
2022/09/25 09:05:44;;;;;;;5.53;3.70;;;;;;;18.04;50.36;97346.22;5068650;28;20221;-76
2022/09/25 09:08:24;;;;;;;4.37;3.20;;;;;;;18.29;49.78;97347.00;5086564;28;20202;-75
2022/09/25 09:10:58;;;;;;;3.93;3.23;;;;;;;18.28;49.89;97334.00;5088096;28;20199;-75
2022/09/25 09:13:34;;;;;;;4.30;3.50;;;;;;;18.35;50.06;97340.47;5086268;28;20279;-76
2022/09/25 09:16:07;;;;;;;5.70;3.77;;;;;;;18.20;50.87;97338.94;5087346;28;20215;-76
2022/09/25 09:18:39;;;;;;;4.00;3.60;;;;;;;18.50;50.07;97334.16;5088105;28;20703;-75
2022/09/25 09:21:37;;;;;;;4.93;3.87;;;;;;;18.57;49.98;97343.22;5086082;28;20290;-74
2022/09/25 09:24:26;;;;;;;4.00;3.60;;;;;;;18.36;50.28;97327.22;5087512;28;20193;-74
2022/09/25 09:27:08;;;;;;;4.60;3.90;;;;;;;18.42;49.54;97320.72;5086047;28;20190;-74
2022/09/25 09:29:50;;;;;;;4.53;3.47;;;;;;;18.85;49.26;97323.69;5092347;28;20209;-74
2022/09/25 09:33:06;;;;;;;4.83;3.50;;;;;;;18.78;48.93;97315.44;5090466;28;20204;-76
2022/09/25 09:35:58;;;;;;;5.73;3.40;;;;;;;18.50;49.79;97313.16;5106762;28;20693;-75
2022/09/25 09:38:34;;;;;;;4.37;3.37;;;;;;;18.87;49.26;97321.78;5105920;28;20221;-75
2022/09/25 09:41:11;;;;;;;4.17;3.77;;;;;;;19.11;48.10;97328.66;5100876;28;20223;-75
2022/09/25 09:43:57;;;;;;;4.00;2.90;;;;;;;18.99;47.97;97331.38;5105890;28;20713;-75
2022/09/25 09:46:57;;;;;;;3.70;2.90;;;;;;;18.77;47.23;97326.06;5106722;28;20290;-74
2022/09/25 09:49:28;;;;;;;5.93;4.07;;;;;;;18.90;47.50;97306.66;5110844;28;20206;-76
2022/09/25 09:52:06;;;;;;;5.30;3.27;;;;;;;19.08;47.74;97325.44;5112794;28;20185;-75
2022/09/25 09:54:49;;;;;;;4.47;3.10;;;;;;;19.09;47.72;97314.81;5114179;28;20281;-75
2022/09/25 09:57:26;;;;;;;3.37;2.90;;;;;;;19.10;46.65;97316.47;5113902;28;20226;-75
2022/09/25 10:00:04;;;;;;;3.63;3.20;;;;;;;19.45;46.39;97308.59;5112788;28;20232;-75
2022/09/25 10:02:42;;;;;;;5.10;3.07;;;;;;;19.38;45.81;97307.38;5107225;27;20229;-75
2022/09/25 10:05:31;;;;;;;3.57;2.83;;;;;;;19.49;45.30;97294.28;5112452;28;20235;-75
2022/09/25 10:07:58;;;;;;;3.90;2.80;;;;;;;19.64;44.71;97251.03;5113598;28;20250;-74
2022/09/25 10:10:49;;;;;;;3.83;3.30;;;;;;;20.10;43.98;97277.13;5113760;28;20685;-75
2022/09/25 10:13:43;;;;;;;5.07;3.07;;;;;;;20.11;45.12;97284.09;5112786;28;20272;-75
2022/09/25 10:16:36;;;;;;;5.07;3.47;;;;;;;20.15;44.93;97269.72;5111946;28;20294;-76
2022/09/25 10:19:27;;;;;;;4.10;3.30;;;;;;;19.85;45.76;97269.53;5092794;28;20254;-75
2022/09/25 10:22:02;;;;;;;4.87;3.20;;;;;;;20.26;45.04;97273.19;5112514;28;20218;-75
2022/09/25 10:25:00;;;;;;;3.93;3.53;;;;;;;20.11;44.79;97270.94;5095551;28;20196;-75
2022/09/25 10:27:37;;;;;;;5.70;3.50;;;;;;;20.22;45.16;97257.78;5106220;28;20695;-75
2022/09/25 10:30:09;;;;;;;3.50;3.10;;;;;;;20.09;45.41;97268.41;5093060;28;20250;-75
2022/09/25 10:32:45;;;;;;;3.63;3.20;;;;;;;19.94;45.37;97271.44;5093606;28;20716;-74
2022/09/25 10:35:21;;;;;;;5.23;3.63;;;;;;;19.88;45.81;97262.25;5091819;28;20856;-74
2022/09/25 10:37:52;;;;;;;4.53;3.40;;;;;;;20.27;45.00;97259.09;5093456;28;20192;-75
2022/09/25 10:40:34;;;;;;;3.90;3.10;;;;;;;20.39;44.13;97272.19;5092688;28;20311;-76
2022/09/25 10:43:16;;;;;;;5.03;4.10;;;;;;;20.10;44.91;97277.13;5092442;28;20251;-77
2022/09/25 10:45:43;;;;;;;3.30;2.97;;;;;;;20.19;44.66;97273.78;5093780;28;20245;-77
2022/09/25 10:51:18;;;;;;;4.53;3.30;;;;;;;20.50;43.87;97251.13;5093080;28;20781;-76
2022/09/25 10:54:10;;;;;;;6.43;3.17;;;;;;;20.17;43.60;97231.00;5093395;28;20184;-76
2022/09/25 10:56:37;;;;;;;3.37;3.07;;;;;;;20.26;42.87;97217.09;5073767;28;20204;-76
2022/09/25 10:59:20;;;;;;;4.57;3.43;;;;;;;20.76;43.18;97248.00;5075422;28;20293;-80
2022/09/25 11:01:50;;;;;;;4.37;3.20;;;;;;;20.46;42.34;97247.91;5092203;28;20271;-78
2022/09/25 11:04:23;;;;;;;4.50;2.90;;;;;;;20.67;41.83;97242.66;5074191;28;20192;-77
2022/09/25 11:07:14;;;;;;;3.57;3.00;;;;;;;20.91;41.31;97228.28;5090213;28;20208;-77
2022/09/25 11:09:44;;;;;;;3.77;3.30;;;;;;;21.02;40.39;97232.66;5088419;28;20189;-77
2022/09/25 11:12:19;;;;;;;3.53;2.77;;;;;;;20.82;41.13;97236.94;5097032;28;20588;-78
2022/09/25 11:14:57;;;;;;;4.30;2.70;;;;;;;20.86;41.64;97233.09;5109008;28;20366;-78
2022/09/25 11:17:41;;;;;;;3.60;3.13;;;;;;;20.88;41.06;97227.69;5110080;28;20369;-77
2022/09/25 11:20:15;;;;;;;3.20;2.90;;;;;;;20.87;41.37;97213.72;5110710;28;20223;-78
2022/09/25 11:22:56;;;;;;;4.03;3.33;;;;;;;20.83;40.36;97214.94;5100167;28;20196;-77
2022/09/25 11:25:30;;;;;;;3.93;2.90;;;;;;;21.11;40.58;97216.09;5073544;28;20633;-76
2022/09/25 11:28:03;;;;;;;5.10;3.00;;;;;;;20.75;41.96;97213.91;5088865;28;20207;-77
2022/09/25 11:30:41;;;;;;;3.90;3.03;;;;;;;20.85;40.81;97206.91;5089490;28;20264;-77
2022/09/25 11:33:14;;;;;;;4.90;2.90;;;;;;;20.99;40.57;97217.94;5089898;28;20215;-79
2022/09/25 11:35:53;;;;;;;6.13;3.30;;;;;;;21.14;40.57;97210.59;5089002;28;20278;-76
2022/09/25 11:41:29;;;;;;;2.90;2.70;;;;;;;21.18;41.07;97201.44;5088756;28;20281;-77
2022/09/25 11:44:31;;;;;;;3.13;2.83;;;;;;;21.18;40.07;97200.59;5088393;28;20646;-77
2022/09/25 11:47:19;;;;;;;5.23;2.93;;;;;;;21.24;38.88;97197.44;5086983;28;20262;-77
2022/09/25 11:49:52;;;;;;;3.63;3.20;;;;;;;21.50;38.44;97149.41;5089550;28;20206;-77
2022/09/25 11:52:32;;;;;;;5.83;2.77;;;;;;;21.75;37.60;97190.28;5089154;28;20296;-78
2022/09/25 11:55:28;;;;;;;3.07;2.77;;;;;;;21.86;36.88;97185.75;5089212;28;20931;-78
2022/09/25 11:58:12;;;;;;;4.33;3.30;;;;;;;21.90;36.83;97194.25;5089081;28;20615;-77
2022/09/25 12:00:59;;;;;;;4.83;3.17;;;;;;;21.68;36.77;97199.69;5088950;28;20271;-77
2022/09/25 12:03:46;;;;;;;3.87;3.30;;;;;;;21.73;37.66;97197.50;5104883;28;20193;-78
2022/09/25 12:06:38;;;;;;;4.80;3.47;;;;;;;21.84;37.73;97202.69;5108025;28;20710;-77
2022/09/25 12:09:26;;;;;;;5.50;2.80;;;;;;;21.67;38.81;97193.59;5109459;28;20216;-77
2022/09/25 12:12:02;;;;;;;4.27;3.03;;;;;;;21.81;38.30;97201.16;5110250;28;20192;-77
2022/09/25 12:14:32;;;;;;;4.73;3.50;;;;;;;21.95;38.42;97197.28;5111428;28;20192;-77
2022/09/25 12:17:12;;;;;;;5.40;2.90;;;;;;;21.71;39.60;97197.63;5109441;28;20750;-76
2022/09/25 12:20:22;;;;;;;3.40;3.00;;;;;;;21.71;39.57;97194.16;5087989;28;21031;-77
2022/09/25 12:23:18;;;;;;;3.33;2.77;;;;;;;21.30;40.07;97189.00;5087987;28;20190;-76
2022/09/25 12:26:01;;;;;;;4.10;2.80;;;;;;;21.28;40.94;97181.25;5052794;28;20221;-77